Decoded Metar for KAMN (ALMA in MI, USA) (IATA:AMN) | Meteo·Mobile Aviation Weather
aviador You're here:

KAMN Decoded Metar

ALMA in MI, USA
Report Time2018-09-23 11:35:00
UTC Time2018-09-23 11:54:02
Flight Rules mvfr MVFR
WindCalm
Visibility8047 m
Phenomena:Mist
Clouds:N/A
CeilingNone
Temp05°C (ISA -9)
Dew Point05°C (100% RH)
AAT3.9°C
QNH1024 hPa
Density Alt-522 ft
Elevation755 ft
Report Wrong Elevation
Raw Report
KAMN 231135Z AUTO 00000KT 5SM BR CLR 05/05 A3024 RMK AO2
T00460046=

Extra information for KAMN:More info

Metar Taf Metar & Taf Last 4 Metars F.Rules Stats Wind Profile Meteogram Temp Stats Airport Information Weather charts Add Link Nearby VenuesMetar ALERT Operation Metar Decoded Social comments

AIRNAV info for KAMN